sensor_id;sensor_type;location;lat;lon;timestamp;P1;durP1;ratioP1;P2;durP2;ratioP2
57899;SDS011;60605;53.716;19.940;2022-07-21T00:00:20;13.30;;;9.40;;
57899;SDS011;60605;53.716;19.940;2022-07-21T00:05:37;10.10;;;8.00;;
57899;SDS011;60605;53.716;19.940;2022-07-21T00:10:41;10.00;;;8.00;;
57899;SDS011;60605;53.716;19.940;2022-07-21T00:15:44;8.90;;;7.90;;
57899;SDS011;60605;53.716;19.940;2022-07-21T00:20:48;9.60;;;8.20;;
57899;SDS011;60605;53.716;19.940;2022-07-21T00:25:52;9.20;;;8.10;;
57899;SDS011;60605;53.716;19.940;2022-07-21T00:30:56;11.50;;;8.00;;
57899;SDS011;60605;53.716;19.940;2022-07-21T00:36:00;8.90;;;8.10;;
57899;SDS011;60605;53.716;19.940;2022-07-21T00:41:03;11.70;;;8.40;;
57899;SDS011;60605;53.716;19.940;2022-07-21T00:46:07;17.60;;;9.70;;
57899;SDS011;60605;53.716;19.940;2022-07-21T00:51:11;17.20;;;9.90;;
57899;SDS011;60605;53.716;19.940;2022-07-21T00:56:14;17.00;;;10.60;;
57899;SDS011;60605;53.716;19.940;2022-07-21T01:01:19;14.80;;;10.00;;
57899;SDS011;60605;53.716;19.940;2022-07-21T01:06:25;11.70;;;9.70;;
57899;SDS011;60605;53.716;19.940;2022-07-21T01:11:29;8.70;;;7.60;;
57899;SDS011;60605;53.716;19.940;2022-07-21T01:16:33;9.40;;;8.40;;
57899;SDS011;60605;53.716;19.940;2022-07-21T01:21:41;11.50;;;8.80;;
57899;SDS011;60605;53.716;19.940;2022-07-21T01:26:48;9.80;;;8.00;;
57899;SDS011;60605;53.716;19.940;2022-07-21T01:31:52;13.40;;;8.10;;
57899;SDS011;60605;53.716;19.940;2022-07-21T01:36:56;9.00;;;8.10;;
57899;SDS011;60605;53.716;19.940;2022-07-21T01:42:00;11.70;;;8.80;;
57899;SDS011;60605;53.716;19.940;2022-07-21T01:47:04;10.60;;;9.00;;
57899;SDS011;60605;53.716;19.940;2022-07-21T01:52:07;12.00;;;9.00;;
57899;SDS011;60605;53.716;19.940;2022-07-21T01:57:11;15.00;;;9.30;;
57899;SDS011;60605;53.716;19.940;2022-07-21T02:02:14;14.80;;;9.80;;
57899;SDS011;60605;53.716;19.940;2022-07-21T02:07:18;11.80;;;8.80;;
57899;SDS011;60605;53.716;19.940;2022-07-21T02:12:21;10.00;;;7.80;;
57899;SDS011;60605;53.716;19.940;2022-07-21T02:17:24;9.20;;;8.30;;
57899;SDS011;60605;53.716;19.940;2022-07-21T02:22:27;11.10;;;9.90;;
57899;SDS011;60605;53.716;19.940;2022-07-21T02:27:31;10.60;;;9.50;;
57899;SDS011;60605;53.716;19.940;2022-07-21T02:32:35;13.80;;;9.70;;
57899;SDS011;60605;53.716;19.940;2022-07-21T02:37:38;10.20;;;8.60;;
57899;SDS011;60605;53.716;19.940;2022-07-21T02:42:42;12.60;;;9.20;;
57899;SDS011;60605;53.716;19.940;2022-07-21T02:48:00;14.20;;;9.50;;
57899;SDS011;60605;53.716;19.940;2022-07-21T02:53:06;9.60;;;8.10;;
57899;SDS011;60605;53.716;19.940;2022-07-21T02:58:15;10.00;;;8.10;;
57899;SDS011;60605;53.716;19.940;2022-07-21T03:03:21;11.60;;;7.50;;
57899;SDS011;60605;53.716;19.940;2022-07-21T03:08:28;10.10;;;7.70;;
57899;SDS011;60605;53.716;19.940;2022-07-21T03:13:32;11.70;;;7.30;;
57899;SDS011;60605;53.716;19.940;2022-07-21T03:18:35;9.00;;;7.90;;
57899;SDS011;60605;53.716;19.940;2022-07-21T03:23:38;13.50;;;8.00;;
57899;SDS011;60605;53.716;19.940;2022-07-21T03:28:42;10.30;;;9.20;;
57899;SDS011;60605;53.716;19.940;2022-07-21T03:33:46;17.40;;;10.40;;
57899;SDS011;60605;53.716;19.940;2022-07-21T03:38:50;15.90;;;8.40;;
57899;SDS011;60605;53.716;19.940;2022-07-21T03:43:54;11.00;;;7.70;;
57899;SDS011;60605;53.716;19.940;2022-07-21T03:48:57;10.20;;;6.70;;
57899;SDS011;60605;53.716;19.940;2022-07-21T03:54:02;15.10;;;6.40;;
57899;SDS011;60605;53.716;19.940;2022-07-21T03:59:05;10.60;;;6.50;;
57899;SDS011;60605;53.716;19.940;2022-07-21T04:04:09;11.40;;;5.70;;
57899;SDS011;60605;53.716;19.940;2022-07-21T04:09:13;9.50;;;6.00;;
57899;SDS011;60605;53.716;19.940;2022-07-21T04:14:18;10.50;;;5.50;;
57899;SDS011;60605;53.716;19.940;2022-07-21T04:19:21;9.50;;;5.30;;
57899;SDS011;60605;53.716;19.940;2022-07-21T04:24:25;9.40;;;5.90;;
57899;SDS011;60605;53.716;19.940;2022-07-21T04:29:29;9.50;;;6.20;;
57899;SDS011;60605;53.716;19.940;2022-07-21T04:34:32;6.50;;;5.20;;
57899;SDS011;60605;53.716;19.940;2022-07-21T04:39:35;8.40;;;5.00;;
57899;SDS011;60605;53.716;19.940;2022-07-21T04:44:39;6.40;;;4.60;;
57899;SDS011;60605;53.716;19.940;2022-07-21T04:49:42;10.20;;;4.60;;
57899;SDS011;60605;53.716;19.940;2022-07-21T04:54:46;7.50;;;4.70;;
57899;SDS011;60605;53.716;19.940;2022-07-21T04:59:49;9.70;;;4.50;;
57899;SDS011;60605;53.716;19.940;2022-07-21T05:04:52;8.20;;;5.30;;
57899;SDS011;60605;53.716;19.940;2022-07-21T05:09:56;8.50;;;4.90;;
57899;SDS011;60605;53.716;19.940;2022-07-21T05:15:02;9.40;;;6.10;;
57899;SDS011;60605;53.716;19.940;2022-07-21T05:20:08;11.70;;;6.40;;
57899;SDS011;60605;53.716;19.940;2022-07-21T05:25:13;10.20;;;5.50;;
57899;SDS011;60605;53.716;19.940;2022-07-21T05:30:16;7.10;;;4.50;;
57899;SDS011;60605;53.716;19.940;2022-07-21T05:35:20;6.70;;;4.10;;
57899;SDS011;60605;53.716;19.940;2022-07-21T05:40:23;8.00;;;4.00;;
57899;SDS011;60605;53.716;19.940;2022-07-21T05:45:26;8.30;;;4.20;;
57899;SDS011;60605;53.716;19.940;2022-07-21T05:50:30;9.40;;;4.10;;
57899;SDS011;60605;53.716;19.940;2022-07-21T05:55:34;11.20;;;3.70;;
57899;SDS011;60605;53.716;19.940;2022-07-21T06:00:38;4.70;;;3.60;;
57899;SDS011;60605;53.716;19.940;2022-07-21T06:05:42;7.40;;;3.40;;
57899;SDS011;60605;53.716;19.940;2022-07-21T06:10:46;7.50;;;3.50;;
57899;SDS011;60605;53.716;19.940;2022-07-21T06:15:49;6.40;;;3.40;;
57899;SDS011;60605;53.716;19.940;2022-07-21T06:20:53;6.10;;;3.30;;
57899;SDS011;60605;53.716;19.940;2022-07-21T06:25:56;6.00;;;3.10;;
57899;SDS011;60605;53.716;19.940;2022-07-21T06:31:00;5.80;;;3.10;;
57899;SDS011;60605;53.716;19.940;2022-07-21T06:36:05;4.60;;;3.20;;
57899;SDS011;60605;53.716;19.940;2022-07-21T06:41:09;4.20;;;2.90;;
57899;SDS011;60605;53.716;19.940;2022-07-21T06:46:12;6.00;;;2.40;;
57899;SDS011;60605;53.716;19.940;2022-07-21T06:51:16;4.30;;;2.30;;
57899;SDS011;60605;53.716;19.940;2022-07-21T06:56:20;4.10;;;2.30;;
57899;SDS011;60605;53.716;19.940;2022-07-21T07:01:23;2.40;;;2.20;;
57899;SDS011;60605;53.716;19.940;2022-07-21T07:06:27;4.60;;;2.30;;
57899;SDS011;60605;53.716;19.940;2022-07-21T07:11:31;3.20;;;2.60;;
57899;SDS011;60605;53.716;19.940;2022-07-21T07:16:37;3.70;;;2.40;;
57899;SDS011;60605;53.716;19.940;2022-07-21T07:21:40;6.90;;;2.60;;
57899;SDS011;60605;53.716;19.940;2022-07-21T07:26:44;2.00;;;1.80;;
57899;SDS011;60605;53.716;19.940;2022-07-21T07:31:48;3.20;;;2.30;;
57899;SDS011;60605;53.716;19.940;2022-07-21T07:36:51;4.50;;;2.10;;
57899;SDS011;60605;53.716;19.940;2022-07-21T07:41:54;4.90;;;2.00;;
57899;SDS011;60605;53.716;19.940;2022-07-21T07:46:58;2.10;;;1.90;;
57899;SDS011;60605;53.716;19.940;2022-07-21T07:52:04;2.40;;;2.20;;
57899;SDS011;60605;53.716;19.940;2022-07-21T07:57:08;4.80;;;1.90;;
57899;SDS011;60605;53.716;19.940;2022-07-21T08:02:11;2.10;;;2.00;;
57899;SDS011;60605;53.716;19.940;2022-07-21T08:07:16;5.50;;;3.40;;
57899;SDS011;60605;53.716;19.940;2022-07-21T08:12:19;5.10;;;3.40;;
57899;SDS011;60605;53.716;19.940;2022-07-21T08:17:22;3.60;;;3.00;;
57899;SDS011;60605;53.716;19.940;2022-07-21T08:22:26;3.50;;;2.30;;
57899;SDS011;60605;53.716;19.940;2022-07-21T08:27:29;4.30;;;2.30;;
57899;SDS011;60605;53.716;19.940;2022-07-21T08:32:33;2.50;;;2.20;;
57899;SDS011;60605;53.716;19.940;2022-07-21T08:37:37;3.40;;;2.30;;
57899;SDS011;60605;53.716;19.940;2022-07-21T08:42:42;4.80;;;2.50;;
57899;SDS011;60605;53.716;19.940;2022-07-21T08:47:46;3.80;;;3.20;;
57899;SDS011;60605;53.716;19.940;2022-07-21T08:52:51;6.70;;;3.10;;
57899;SDS011;60605;53.716;19.940;2022-07-21T08:58:02;5.00;;;2.90;;
57899;SDS011;60605;53.716;19.940;2022-07-21T09:08:27;2.40;;;2.20;;
57899;SDS011;60605;53.716;19.940;2022-07-21T09:13:32;4.00;;;2.10;;
57899;SDS011;60605;53.716;19.940;2022-07-21T09:18:49;2.40;;;2.10;;
57899;SDS011;60605;53.716;19.940;2022-07-21T09:29:16;2.50;;;2.10;;
57899;SDS011;60605;53.716;19.940;2022-07-21T09:34:20;3.20;;;2.10;;
57899;SDS011;60605;53.716;19.940;2022-07-21T09:50:02;4.00;;;2.60;;
57899;SDS011;60605;53.716;19.940;2022-07-21T09:55:27;4.20;;;3.40;;
57899;SDS011;60605;53.716;19.940;2022-07-21T10:00:32;3.50;;;2.60;;
57899;SDS011;60605;53.716;19.940;2022-07-21T10:05:36;5.70;;;2.50;;
57899;SDS011;60605;53.716;19.940;2022-07-21T10:10:40;4.80;;;2.60;;
57899;SDS011;60605;53.716;19.940;2022-07-21T10:16:04;7.30;;;2.70;;
57899;SDS011;60605;53.716;19.940;2022-07-21T10:21:25;4.40;;;2.50;;
57899;SDS011;60605;53.716;19.940;2022-07-21T10:26:38;4.40;;;2.30;;
57899;SDS011;60605;53.716;19.940;2022-07-21T10:32:09;4.20;;;2.80;;
57899;SDS011;60605;53.716;19.940;2022-07-21T10:42:42;2.30;;;2.10;;
57899;SDS011;60605;53.716;19.940;2022-07-21T10:47:46;3.80;;;2.40;;
57899;SDS011;60605;53.716;19.940;2022-07-21T10:58:10;4.00;;;2.30;;
57899;SDS011;60605;53.716;19.940;2022-07-21T11:03:18;5.90;;;2.40;;
57899;SDS011;60605;53.716;19.940;2022-07-21T11:08:30;5.10;;;2.40;;
57899;SDS011;60605;53.716;19.940;2022-07-21T11:24:44;3.10;;;2.10;;
57899;SDS011;60605;53.716;19.940;2022-07-21T11:29:51;5.00;;;2.40;;
57899;SDS011;60605;53.716;19.940;2022-07-21T11:34:59;3.00;;;2.20;;
57899;SDS011;60605;53.716;19.940;2022-07-21T11:40:06;4.40;;;2.10;;
57899;SDS011;60605;53.716;19.940;2022-07-21T11:45:13;6.40;;;2.20;;
57899;SDS011;60605;53.716;19.940;2022-07-21T11:50:17;4.40;;;2.40;;
57899;SDS011;60605;53.716;19.940;2022-07-21T11:55:21;6.50;;;2.60;;
57899;SDS011;60605;53.716;19.940;2022-07-21T12:00:25;5.00;;;2.70;;
57899;SDS011;60605;53.716;19.940;2022-07-21T12:05:28;5.30;;;2.40;;
57899;SDS011;60605;53.716;19.940;2022-07-21T12:10:32;4.10;;;2.20;;
57899;SDS011;60605;53.716;19.940;2022-07-21T12:15:36;5.80;;;2.40;;
57899;SDS011;60605;53.716;19.940;2022-07-21T12:20:41;3.60;;;2.30;;
57899;SDS011;60605;53.716;19.940;2022-07-21T12:25:44;5.40;;;2.40;;
57899;SDS011;60605;53.716;19.940;2022-07-21T12:30:55;6.30;;;2.40;;
57899;SDS011;60605;53.716;19.940;2022-07-21T12:36:03;6.20;;;2.70;;
57899;SDS011;60605;53.716;19.940;2022-07-21T12:41:12;3.20;;;2.50;;
57899;SDS011;60605;53.716;19.940;2022-07-21T12:46:33;4.30;;;2.60;;
57899;SDS011;60605;53.716;19.940;2022-07-21T12:51:38;8.40;;;3.00;;
57899;SDS011;60605;53.716;19.940;2022-07-21T12:56:42;4.20;;;2.70;;
57899;SDS011;60605;53.716;19.940;2022-07-21T13:01:46;3.90;;;2.70;;
57899;SDS011;60605;53.716;19.940;2022-07-21T13:06:50;3.50;;;2.50;;
57899;SDS011;60605;53.716;19.940;2022-07-21T13:11:56;5.50;;;2.70;;
57899;SDS011;60605;53.716;19.940;2022-07-21T13:17:01;5.00;;;2.70;;
57899;SDS011;60605;53.716;19.940;2022-07-21T13:22:05;6.80;;;2.90;;
57899;SDS011;60605;53.716;19.940;2022-07-21T13:27:09;5.20;;;2.60;;
57899;SDS011;60605;53.716;19.940;2022-07-21T13:32:13;6.00;;;2.90;;
57899;SDS011;60605;53.716;19.940;2022-07-21T13:37:16;4.50;;;2.70;;
57899;SDS011;60605;53.716;19.940;2022-07-21T13:42:30;7.70;;;2.90;;
57899;SDS011;60605;53.716;19.940;2022-07-21T13:47:53;5.10;;;2.40;;
57899;SDS011;60605;53.716;19.940;2022-07-21T13:52:57;7.00;;;3.00;;
57899;SDS011;60605;53.716;19.940;2022-07-21T13:58:00;5.80;;;2.80;;
57899;SDS011;60605;53.716;19.940;2022-07-21T14:03:04;5.80;;;3.00;;
57899;SDS011;60605;53.716;19.940;2022-07-21T14:08:09;5.40;;;2.90;;
57899;SDS011;60605;53.716;19.940;2022-07-21T14:13:12;9.30;;;2.90;;
57899;SDS011;60605;53.716;19.940;2022-07-21T14:18:16;5.30;;;2.70;;
57899;SDS011;60605;53.716;19.940;2022-07-21T14:23:21;6.00;;;2.70;;
57899;SDS011;60605;53.716;19.940;2022-07-21T14:28:25;6.20;;;2.90;;
57899;SDS011;60605;53.716;19.940;2022-07-21T14:33:29;3.70;;;2.70;;
57899;SDS011;60605;53.716;19.940;2022-07-21T14:38:33;7.30;;;3.00;;
57899;SDS011;60605;53.716;19.940;2022-07-21T14:43:36;4.60;;;2.80;;
57899;SDS011;60605;53.716;19.940;2022-07-21T14:48:40;7.10;;;2.90;;
57899;SDS011;60605;53.716;19.940;2022-07-21T14:53:43;6.80;;;2.80;;
57899;SDS011;60605;53.716;19.940;2022-07-21T14:58:47;6.80;;;3.20;;
57899;SDS011;60605;53.716;19.940;2022-07-21T15:03:51;7.30;;;3.60;;
57899;SDS011;60605;53.716;19.940;2022-07-21T15:08:55;7.80;;;3.70;;
57899;SDS011;60605;53.716;19.940;2022-07-21T15:14:01;11.20;;;3.40;;
57899;SDS011;60605;53.716;19.940;2022-07-21T15:19:08;6.40;;;3.70;;
57899;SDS011;60605;53.716;19.940;2022-07-21T15:24:11;12.50;;;3.50;;
57899;SDS011;60605;53.716;19.940;2022-07-21T15:29:15;6.10;;;4.00;;
57899;SDS011;60605;53.716;19.940;2022-07-21T15:34:19;5.70;;;3.50;;
57899;SDS011;60605;53.716;19.940;2022-07-21T15:39:23;6.60;;;3.30;;
57899;SDS011;60605;53.716;19.940;2022-07-21T15:44:26;7.70;;;3.80;;
57899;SDS011;60605;53.716;19.940;2022-07-21T15:49:30;7.10;;;3.90;;
57899;SDS011;60605;53.716;19.940;2022-07-21T15:54:33;7.20;;;3.60;;
57899;SDS011;60605;53.716;19.940;2022-07-21T15:59:57;7.60;;;3.30;;
57899;SDS011;60605;53.716;19.940;2022-07-21T16:05:01;7.10;;;3.70;;
57899;SDS011;60605;53.716;19.940;2022-07-21T16:10:07;6.50;;;3.00;;
57899;SDS011;60605;53.716;19.940;2022-07-21T16:15:12;10.00;;;3.30;;
57899;SDS011;60605;53.716;19.940;2022-07-21T16:20:17;4.00;;;2.70;;
57899;SDS011;60605;53.716;19.940;2022-07-21T16:25:23;4.40;;;3.00;;
57899;SDS011;60605;53.716;19.940;2022-07-21T16:30:28;5.20;;;2.80;;
57899;SDS011;60605;53.716;19.940;2022-07-21T16:35:32;6.40;;;2.80;;
57899;SDS011;60605;53.716;19.940;2022-07-21T16:40:35;9.90;;;3.20;;
57899;SDS011;60605;53.716;19.940;2022-07-21T16:45:39;8.40;;;3.10;;
57899;SDS011;60605;53.716;19.940;2022-07-21T16:50:43;6.60;;;3.30;;
57899;SDS011;60605;53.716;19.940;2022-07-21T16:55:46;5.30;;;3.50;;
57899;SDS011;60605;53.716;19.940;2022-07-21T17:00:50;8.50;;;3.40;;
57899;SDS011;60605;53.716;19.940;2022-07-21T17:05:53;8.30;;;3.30;;
57899;SDS011;60605;53.716;19.940;2022-07-21T17:10:58;8.50;;;3.30;;
57899;SDS011;60605;53.716;19.940;2022-07-21T17:16:02;8.80;;;3.50;;
57899;SDS011;60605;53.716;19.940;2022-07-21T17:21:07;6.00;;;3.30;;
57899;SDS011;60605;53.716;19.940;2022-07-21T17:26:11;8.90;;;3.70;;
57899;SDS011;60605;53.716;19.940;2022-07-21T17:31:15;7.40;;;3.70;;
57899;SDS011;60605;53.716;19.940;2022-07-21T17:36:18;11.60;;;4.40;;
57899;SDS011;60605;53.716;19.940;2022-07-21T17:41:22;9.50;;;4.30;;
57899;SDS011;60605;53.716;19.940;2022-07-21T17:46:26;9.40;;;4.80;;
57899;SDS011;60605;53.716;19.940;2022-07-21T17:51:30;6.70;;;3.90;;
57899;SDS011;60605;53.716;19.940;2022-07-21T17:56:33;11.80;;;3.80;;
57899;SDS011;60605;53.716;19.940;2022-07-21T18:01:38;4.60;;;3.70;;
57899;SDS011;60605;53.716;19.940;2022-07-21T18:06:42;9.40;;;4.70;;
57899;SDS011;60605;53.716;19.940;2022-07-21T18:11:45;11.30;;;3.70;;
57899;SDS011;60605;53.716;19.940;2022-07-21T18:16:49;6.50;;;4.20;;
57899;SDS011;60605;53.716;19.940;2022-07-21T18:21:53;11.40;;;4.20;;
57899;SDS011;60605;53.716;19.940;2022-07-21T18:26:57;5.90;;;3.60;;
57899;SDS011;60605;53.716;19.940;2022-07-21T18:32:00;9.40;;;3.70;;
57899;SDS011;60605;53.716;19.940;2022-07-21T18:37:05;6.10;;;3.70;;
57899;SDS011;60605;53.716;19.940;2022-07-21T18:42:08;8.20;;;4.70;;
57899;SDS011;60605;53.716;19.940;2022-07-21T18:47:14;8.40;;;3.80;;
57899;SDS011;60605;53.716;19.940;2022-07-21T18:52:19;12.80;;;4.50;;
57899;SDS011;60605;53.716;19.940;2022-07-21T18:57:24;13.70;;;4.10;;
57899;SDS011;60605;53.716;19.940;2022-07-21T19:02:27;12.80;;;5.40;;
57899;SDS011;60605;53.716;19.940;2022-07-21T19:07:37;14.90;;;5.60;;
57899;SDS011;60605;53.716;19.940;2022-07-21T19:12:47;24.00;;;8.10;;
57899;SDS011;60605;53.716;19.940;2022-07-21T19:17:51;12.10;;;7.80;;
57899;SDS011;60605;53.716;19.940;2022-07-21T19:22:55;25.90;;;9.40;;
57899;SDS011;60605;53.716;19.940;2022-07-21T19:27:59;15.00;;;7.40;;
57899;SDS011;60605;53.716;19.940;2022-07-21T19:33:03;14.40;;;7.40;;
57899;SDS011;60605;53.716;19.940;2022-07-21T19:38:08;19.20;;;8.20;;
57899;SDS011;60605;53.716;19.940;2022-07-21T19:43:12;15.90;;;7.80;;
57899;SDS011;60605;53.716;19.940;2022-07-21T19:48:16;16.00;;;8.30;;
57899;SDS011;60605;53.716;19.940;2022-07-21T19:53:23;13.70;;;7.50;;
57899;SDS011;60605;53.716;19.940;2022-07-21T19:58:26;13.80;;;7.90;;
57899;SDS011;60605;53.716;19.940;2022-07-21T20:03:30;14.90;;;8.00;;
57899;SDS011;60605;53.716;19.940;2022-07-21T20:08:34;15.80;;;8.80;;
57899;SDS011;60605;53.716;19.940;2022-07-21T20:13:40;10.20;;;6.70;;
57899;SDS011;60605;53.716;19.940;2022-07-21T20:18:44;9.10;;;6.20;;
57899;SDS011;60605;53.716;19.940;2022-07-21T20:23:49;10.60;;;6.30;;
57899;SDS011;60605;53.716;19.940;2022-07-21T20:28:57;8.00;;;6.10;;
57899;SDS011;60605;53.716;19.940;2022-07-21T20:34:01;8.50;;;6.10;;
57899;SDS011;60605;53.716;19.940;2022-07-21T20:39:10;8.60;;;5.90;;
57899;SDS011;60605;53.716;19.940;2022-07-21T20:44:13;11.40;;;5.90;;
57899;SDS011;60605;53.716;19.940;2022-07-21T20:49:17;8.10;;;5.50;;
57899;SDS011;60605;53.716;19.940;2022-07-21T20:54:20;8.40;;;5.50;;
57899;SDS011;60605;53.716;19.940;2022-07-21T20:59:23;7.50;;;6.10;;
57899;SDS011;60605;53.716;19.940;2022-07-21T21:04:26;9.60;;;6.40;;
57899;SDS011;60605;53.716;19.940;2022-07-21T21:09:30;9.40;;;6.20;;
57899;SDS011;60605;53.716;19.940;2022-07-21T21:14:34;8.00;;;5.60;;
57899;SDS011;60605;53.716;19.940;2022-07-21T21:19:37;13.30;;;7.20;;
57899;SDS011;60605;53.716;19.940;2022-07-21T21:24:41;9.70;;;6.50;;
57899;SDS011;60605;53.716;19.940;2022-07-21T21:29:44;9.20;;;6.10;;
57899;SDS011;60605;53.716;19.940;2022-07-21T21:34:47;12.60;;;6.60;;
57899;SDS011;60605;53.716;19.940;2022-07-21T21:39:51;8.00;;;5.60;;
57899;SDS011;60605;53.716;19.940;2022-07-21T21:44:55;9.80;;;5.50;;
57899;SDS011;60605;53.716;19.940;2022-07-21T21:49:58;9.90;;;6.10;;
57899;SDS011;60605;53.716;19.940;2022-07-21T21:55:02;7.90;;;5.60;;
57899;SDS011;60605;53.716;19.940;2022-07-21T22:00:08;9.20;;;5.40;;
57899;SDS011;60605;53.716;19.940;2022-07-21T22:05:16;9.60;;;6.00;;
57899;SDS011;60605;53.716;19.940;2022-07-21T22:10:20;9.70;;;6.20;;
57899;SDS011;60605;53.716;19.940;2022-07-21T22:15:23;7.20;;;6.10;;
57899;SDS011;60605;53.716;19.940;2022-07-21T22:20:27;9.20;;;5.90;;
57899;SDS011;60605;53.716;19.940;2022-07-21T22:25:30;9.70;;;6.10;;
57899;SDS011;60605;53.716;19.940;2022-07-21T22:30:34;9.30;;;6.20;;
57899;SDS011;60605;53.716;19.940;2022-07-21T22:35:37;9.00;;;6.60;;
57899;SDS011;60605;53.716;19.940;2022-07-21T22:40:41;9.00;;;6.20;;
57899;SDS011;60605;53.716;19.940;2022-07-21T22:45:44;10.00;;;6.30;;
57899;SDS011;60605;53.716;19.940;2022-07-21T22:50:47;8.20;;;6.30;;
57899;SDS011;60605;53.716;19.940;2022-07-21T22:55:51;11.70;;;6.70;;
57899;SDS011;60605;53.716;19.940;2022-07-21T23:00:54;9.00;;;6.20;;
57899;SDS011;60605;53.716;19.940;2022-07-21T23:30:11;7.40;;;6.30;;
57899;SDS011;60605;53.716;19.940;2022-07-21T23:35:14;8.50;;;6.40;;
57899;SDS011;60605;53.716;19.940;2022-07-21T23:40:19;9.60;;;6.30;;
